aviador You're here:

PAMY Decoded Metar

MEKORYUK in AK, USA
Report Time2017-09-20 19:56:00
UTC Time2017-09-20 20:03:59
Flight Rules mvfr MVFR
Wind030° at 11 kt
W.Decomp.*RWY 05: 9.2 kt HW 6 kt LCW
W.Rank030° ranks 4
Current wind is below 030° avg. (11.8)
Visibility9999 m
Phenomena:Light Rain
Clouds:Few 023 Hf
Overcast 029 Hf
Expected CloudBase > 400 ft AGL from Temp-Dew spread
Ceiling2,900 ft
Temp07°C (ISA -8)
Dew Point06°C (93% RH)
AAT2.1°C
QNH1020 hPa
Density Alt-1,020 ft
Elevation43 ft
Report Wrong Elevation
Raw Report
PAMY 201956Z AUTO 03011KT 10SM -RA FEW023 OVC029 07/06 A3011 RMK
AO2 RAB46 SLP198 P0000 T00720056=

Extra information for PAMY:More info

Metar Taf Metar & Taf Last 4 Metars F.Rules Stats Wind Profile Meteogram Temp Stats Airport Information Weather charts Add Link Nearby VenuesMetar ALERT Operation Metar Decoded Social comments

AIRNAV info for PAMY